createdAt,value
2018-07-14T00:02:25.122Z,1.00
2018-07-14T00:04:53.599Z,1.00
2018-07-14T00:07:22.091Z,1.00
2018-07-14T00:09:50.651Z,1.00
2018-07-14T00:12:19.139Z,1.00
2018-07-14T00:14:47.625Z,1.00
2018-07-14T00:17:16.311Z,1.00
2018-07-14T00:19:44.847Z,1.00
2018-07-14T00:22:13.488Z,1.00
2018-07-14T00:24:42.110Z,1.00
2018-07-14T00:27:10.618Z,1.00
2018-07-14T00:29:39.111Z,1.00
2018-07-14T00:32:07.942Z,1.00
2018-07-14T00:34:36.444Z,1.00
2018-07-14T00:37:05.136Z,1.00
2018-07-14T00:39:33.588Z,1.00
2018-07-14T00:42:02.105Z,1.00
2018-07-14T00:44:30.700Z,1.00
2018-07-14T00:46:59.190Z,1.00
2018-07-14T00:49:27.667Z,1.00
2018-07-14T00:51:56.169Z,1.00
2018-07-14T00:54:24.840Z,1.00
2018-07-14T00:56:53.346Z,1.00
2018-07-14T00:59:21.843Z,1.00
2018-07-14T01:01:50.304Z,1.00
2018-07-14T01:04:18.748Z,1.00
2018-07-14T01:06:47.499Z,1.00
2018-07-14T01:09:16.007Z,1.00
2018-07-14T01:11:44.495Z,1.00
2018-07-14T01:14:13.444Z,1.00
2018-07-14T01:16:42.101Z,1.00
2018-07-14T01:19:10.654Z,1.00
2018-07-14T01:21:39.113Z,1.00
2018-07-14T01:24:07.578Z,1.00
2018-07-14T01:26:36.175Z,1.00
2018-07-14T01:29:04.746Z,1.00
2018-07-14T01:31:33.244Z,1.00
2018-07-14T01:34:01.705Z,1.00
2018-07-14T01:36:30.187Z,1.00
2018-07-14T01:38:58.636Z,1.00
2018-07-14T01:41:27.084Z,1.00
2018-07-14T01:43:55.562Z,1.00
2018-07-14T01:46:24.044Z,1.00
2018-07-14T01:48:52.576Z,1.00
2018-07-14T01:51:21.044Z,1.00
2018-07-14T01:53:49.510Z,1.00
2018-07-14T01:56:17.962Z,1.00
2018-07-14T01:58:46.477Z,1.00
2018-07-14T02:01:14.936Z,1.00
2018-07-14T02:03:43.463Z,1.00
2018-07-14T02:06:11.897Z,1.00
2018-07-14T02:08:40.395Z,1.00
2018-07-14T02:11:08.878Z,1.00
2018-07-14T02:16:05.534Z,1.00
2018-07-14T02:18:33.991Z,1.00
2018-07-14T02:21:02.473Z,1.00
2018-07-14T02:23:30.951Z,1.00
2018-07-14T02:25:59.463Z,1.00
2018-07-14T02:28:27.903Z,1.00
2018-07-14T02:30:56.515Z,1.00
2018-07-14T02:33:25.753Z,1.00
2018-07-14T02:35:54.246Z,1.00
2018-07-14T02:38:22.722Z,1.00
2018-07-14T02:40:52.193Z,1.00
2018-07-14T02:43:20.669Z,1.00
2018-07-14T02:45:49.167Z,9.70
2018-07-14T02:48:17.611Z,1.00
2018-07-14T02:50:46.549Z,1.00
2018-07-14T02:55:43.243Z,1.00
2018-07-14T02:58:11.724Z,1.00
2018-07-14T03:00:40.244Z,1.00
2018-07-14T03:03:08.782Z,1.00
2018-07-14T03:05:37.238Z,1.00
2018-07-14T03:08:05.726Z,1.00
2018-07-14T03:10:34.205Z,1.00
2018-07-14T03:13:02.701Z,1.00
2018-07-14T03:15:31.163Z,1.00
2018-07-14T03:17:59.623Z,1.00
2018-07-14T03:20:28.077Z,1.00
2018-07-14T03:22:56.555Z,1.00
2018-07-14T03:25:25.002Z,1.00
2018-07-14T03:27:53.549Z,4.50
2018-07-14T03:30:22.071Z,6.10
2018-07-14T03:32:50.548Z,5.60
2018-07-14T03:35:19.028Z,7.10
2018-07-14T03:37:47.690Z,1.00
2018-07-14T03:40:16.225Z,15.40
2018-07-14T03:42:44.678Z,16.80
2018-07-14T03:45:13.215Z,5.60
2018-07-14T03:47:41.682Z,1.00
2018-07-14T03:50:10.173Z,4.40
2018-07-14T03:52:38.723Z,15.70
2018-07-14T03:55:08.005Z,12.40
2018-07-14T03:57:36.551Z,4.20
2018-07-14T04:00:05.567Z,10.60
2018-07-14T04:02:34.263Z,24.00
2018-07-14T04:05:02.760Z,34.10
2018-07-14T04:07:31.269Z,31.40
2018-07-14T04:09:59.710Z,30.50
2018-07-14T04:14:56.362Z,31.40
2018-07-14T04:17:24.859Z,39.80
2018-07-14T04:19:53.415Z,38.90
2018-07-14T04:22:21.898Z,28.60
2018-07-14T04:24:50.346Z,27.60
2018-07-14T04:27:18.829Z,29.80
2018-07-14T04:29:47.322Z,24.60
2018-07-14T04:32:15.803Z,11.80
2018-07-14T04:34:44.264Z,27.40
2018-07-14T04:37:12.735Z,22.20
2018-07-14T04:39:41.213Z,27.20
2018-07-14T04:42:09.764Z,19.70
2018-07-14T04:44:38.223Z,20.50
2018-07-14T04:47:06.825Z,18.60
2018-07-14T04:49:35.322Z,25.90
2018-07-14T04:52:03.850Z,25.70
2018-07-14T04:54:32.536Z,23.70
2018-07-14T04:57:01.000Z,29.60
2018-07-14T04:59:29.455Z,35.30
2018-07-14T05:01:57.906Z,32.90
2018-07-14T05:04:26.402Z,33.10
2018-07-14T05:06:54.868Z,35.20
2018-07-14T05:09:23.340Z,29.80
2018-07-14T05:11:51.795Z,4.10
2018-07-14T05:14:20.264Z,5.60
2018-07-14T05:16:48.804Z,7.80
2018-07-14T05:19:17.285Z,1.40
2018-07-14T05:21:45.763Z,3.00
2018-07-14T05:24:14.285Z,1.00
2018-07-14T05:26:42.848Z,1.00
2018-07-14T05:29:11.333Z,1.00
2018-07-14T05:31:39.807Z,1.00
2018-07-14T05:34:08.251Z,1.00
2018-07-14T05:36:37.084Z,1.00
2018-07-14T05:39:06.505Z,1.00
2018-07-14T05:41:34.960Z,1.00
2018-07-14T05:44:03.483Z,1.00
2018-07-14T05:46:31.986Z,1.00
2018-07-14T05:49:00.466Z,1.00
2018-07-14T05:51:28.932Z,1.00
2018-07-14T05:53:57.427Z,1.00
2018-07-14T05:56:25.914Z,1.00
2018-07-14T05:58:54.392Z,1.00
2018-07-14T06:01:22.947Z,1.00
2018-07-14T06:03:51.440Z,1.00
2018-07-14T06:06:19.899Z,1.00
2018-07-14T06:08:48.404Z,1.00
2018-07-14T06:11:17.226Z,99.90
2018-07-14T06:13:46.958Z,99.90
2018-07-14T06:16:15.485Z,99.90
2018-07-14T06:18:43.909Z,99.90
2018-07-14T06:21:12.525Z,67.00
2018-07-14T06:23:41.003Z,45.40
2018-07-14T06:26:09.704Z,1.00
2018-07-14T06:28:40.140Z,99.90
2018-07-14T06:31:08.639Z,1.00
2018-07-14T06:33:37.151Z,99.90
2018-07-14T06:36:05.706Z,1.00
2018-07-14T06:38:34.218Z,1.00
2018-07-14T06:41:02.810Z,99.90
2018-07-14T06:43:31.280Z,99.90
2018-07-14T06:45:59.799Z,99.90
2018-07-14T06:48:28.407Z,1.00
2018-07-14T06:50:56.942Z,99.90
2018-07-14T06:53:25.545Z,43.10
2018-07-14T06:55:53.986Z,20.30
2018-07-14T06:58:22.443Z,1.00
2018-07-14T07:00:50.913Z,1.00
2018-07-14T07:03:19.465Z,96.30
2018-07-14T07:05:47.960Z,1.00
2018-07-14T07:08:16.569Z,1.00
2018-07-14T07:10:45.124Z,1.00
2018-07-14T07:13:13.659Z,99.90
2018-07-14T07:15:42.161Z,99.90
2018-07-14T07:18:10.804Z,99.90
2018-07-14T07:20:39.272Z,99.90
2018-07-14T07:23:07.791Z,99.90
2018-07-14T07:25:36.362Z,99.90
2018-07-14T07:28:04.923Z,99.90
2018-07-14T07:30:33.453Z,99.90
2018-07-14T07:33:01.925Z,99.90
2018-07-14T07:35:30.408Z,99.90
2018-07-14T07:37:58.918Z,99.90
2018-07-14T07:40:27.553Z,99.90
2018-07-14T07:42:56.092Z,99.90
2018-07-14T07:45:24.632Z,99.90
2018-07-14T07:47:53.106Z,99.90
2018-07-14T07:50:21.605Z,99.90
2018-07-14T07:52:50.097Z,99.90
2018-07-14T07:55:18.551Z,99.90
2018-07-14T07:57:47.167Z,99.90
2018-07-14T08:00:15.615Z,99.90
2018-07-14T08:02:44.096Z,99.90
2018-07-14T08:05:12.645Z,99.90
2018-07-14T08:07:41.195Z,99.90
2018-07-14T08:12:39.398Z,99.90
2018-07-14T08:15:08.003Z,99.90
2018-07-14T08:17:36.544Z,99.90
2018-07-14T08:20:05.401Z,99.90
2018-07-14T08:22:34.296Z,99.90
2018-07-14T08:25:02.979Z,99.90
2018-07-14T08:27:31.488Z,99.90
2018-07-14T08:29:59.979Z,99.90
2018-07-14T08:32:28.864Z,99.90
2018-07-14T08:35:00.147Z,99.90
2018-07-14T08:37:29.700Z,99.90
2018-07-14T08:39:58.173Z,99.90
2018-07-14T08:42:26.740Z,99.90
2018-07-14T08:44:55.292Z,99.90
2018-07-14T08:47:23.805Z,99.90
2018-07-14T08:49:52.343Z,99.90
2018-07-14T08:52:20.863Z,99.90
2018-07-14T08:54:49.644Z,99.90
2018-07-14T08:57:18.174Z,99.90
2018-07-14T08:59:47.467Z,99.90
2018-07-14T09:02:15.956Z,99.90
2018-07-14T09:04:44.630Z,99.90
2018-07-14T09:07:13.169Z,99.90
2018-07-14T09:09:41.691Z,99.90
2018-07-14T09:12:10.215Z,99.90
2018-07-14T09:14:38.902Z,99.90
2018-07-14T09:17:07.747Z,99.90
2018-07-14T09:19:36.935Z,99.90
2018-07-14T09:22:06.097Z,99.90
2018-07-14T09:24:34.840Z,99.90
2018-07-14T09:27:03.372Z,99.90
2018-07-14T09:29:31.923Z,99.90
2018-07-14T09:32:00.539Z,99.90
2018-07-14T09:34:29.202Z,99.90
2018-07-14T09:36:57.709Z,99.90
2018-07-14T09:39:26.493Z,99.90
2018-07-14T09:41:55.147Z,99.90
2018-07-14T09:44:23.680Z,99.90
2018-07-14T09:46:52.349Z,99.90
2018-07-14T09:49:20.945Z,99.90
2018-07-14T09:54:18.145Z,99.90
2018-07-14T09:56:46.671Z,99.90
2018-07-14T09:59:15.256Z,99.90
2018-07-14T10:01:43.977Z,99.90
2018-07-14T10:06:40.889Z,99.90
2018-07-14T10:09:09.489Z,99.90
2018-07-14T10:11:37.971Z,99.90
2018-07-14T10:14:06.446Z,99.90
2018-07-14T10:16:35.020Z,99.90
2018-07-14T10:19:03.550Z,99.90
2018-07-14T10:21:32.106Z,99.90
2018-07-14T10:24:00.592Z,99.90
2018-07-14T10:26:29.088Z,99.90
2018-07-14T10:28:57.723Z,99.90
2018-07-14T10:31:26.265Z,99.90
2018-07-14T10:33:54.841Z,99.90
2018-07-14T10:36:23.347Z,99.90
2018-07-14T10:38:52.065Z,99.90
2018-07-14T10:41:20.605Z,99.90
2018-07-14T10:46:17.341Z,99.90
2018-07-14T10:48:45.992Z,99.90
2018-07-14T10:51:14.541Z,99.90
2018-07-14T10:53:43.115Z,99.90
2018-07-14T10:56:11.607Z,99.90
2018-07-14T10:58:40.791Z,99.90
2018-07-14T11:01:09.390Z,99.90
2018-07-14T11:03:38.007Z,99.90
2018-07-14T11:06:07.152Z,99.90
2018-07-14T11:08:35.655Z,99.90
2018-07-14T11:11:04.860Z,99.90
2018-07-14T11:16:01.566Z,99.90
2018-07-14T11:18:31.691Z,99.90
2018-07-14T11:21:00.324Z,99.90
2018-07-14T11:23:28.830Z,99.90
2018-07-14T11:25:57.479Z,99.90
2018-07-14T11:28:26.134Z,99.90
2018-07-14T11:30:54.754Z,99.90
2018-07-14T11:33:23.281Z,99.90
2018-07-14T11:35:51.787Z,99.90
2018-07-14T11:38:20.393Z,99.90
2018-07-14T11:40:48.928Z,99.90
2018-07-14T11:43:17.495Z,99.90
2018-07-14T11:45:46.125Z,99.90
2018-07-14T11:48:14.602Z,99.90
2018-07-14T11:50:43.221Z,99.90
2018-07-14T11:53:11.672Z,99.90
2018-07-14T11:55:40.192Z,99.90
2018-07-14T11:58:08.718Z,99.90
2018-07-14T12:00:37.245Z,99.90
2018-07-14T12:03:05.958Z,99.90
2018-07-14T12:05:34.562Z,99.90
2018-07-14T12:08:03.046Z,99.90
2018-07-14T12:10:31.636Z,99.90
2018-07-14T12:13:00.133Z,99.90
2018-07-14T12:15:28.710Z,99.90
2018-07-14T12:17:57.166Z,99.90
2018-07-14T12:20:25.738Z,99.90
2018-07-14T12:22:54.222Z,99.90
2018-07-14T12:25:22.737Z,99.90
2018-07-14T12:27:51.330Z,99.90
2018-07-14T12:30:19.876Z,99.90
2018-07-14T12:32:48.400Z,99.90
2018-07-14T12:35:16.939Z,99.90
2018-07-14T12:37:46.200Z,99.90
2018-07-14T12:40:14.715Z,99.90
2018-07-14T12:42:43.212Z,99.90
2018-07-14T12:45:11.731Z,99.90
2018-07-14T12:47:40.330Z,99.90
2018-07-14T12:50:09.311Z,99.90
2018-07-14T12:52:38.248Z,99.90
2018-07-14T12:57:35.527Z,99.90
2018-07-14T13:00:05.274Z,99.90
2018-07-14T13:02:33.727Z,99.90
2018-07-14T13:05:02.539Z,99.90
2018-07-14T13:07:31.172Z,99.90
2018-07-14T13:09:59.755Z,99.90
2018-07-14T13:12:28.400Z,99.90
2018-07-14T13:14:56.926Z,99.90
2018-07-14T13:17:25.524Z,99.90
2018-07-14T13:19:53.987Z,99.90
2018-07-14T13:22:22.581Z,99.90
2018-07-14T13:24:51.371Z,99.90
2018-07-14T13:27:19.906Z,99.90
2018-07-14T13:29:48.438Z,99.90
2018-07-14T13:32:17.035Z,99.90
2018-07-14T13:37:13.976Z,99.90
2018-07-14T13:39:42.650Z,99.90
2018-07-14T13:42:11.191Z,99.90
2018-07-14T13:44:39.742Z,99.90
2018-07-14T13:47:08.307Z,99.90
2018-07-14T13:49:36.871Z,99.90
2018-07-14T13:52:05.571Z,99.90
2018-07-14T13:54:34.478Z,99.90
2018-07-14T13:57:03.186Z,99.90
2018-07-14T13:59:31.717Z,99.90
2018-07-14T14:02:00.556Z,99.90
2018-07-14T14:04:29.145Z,99.90
2018-07-14T14:06:58.063Z,99.90
2018-07-14T14:09:27.430Z,99.90
2018-07-14T14:11:56.460Z,99.90
2018-07-14T14:14:25.549Z,99.90
2018-07-14T14:16:54.121Z,99.90
2018-07-14T14:19:22.689Z,99.90
2018-07-14T14:21:51.285Z,99.90
2018-07-14T14:24:20.248Z,99.90
2018-07-14T14:26:48.783Z,99.90
2018-07-14T14:29:17.278Z,99.90
2018-07-14T14:31:45.922Z,99.90
2018-07-14T14:34:14.466Z,99.90
2018-07-14T14:36:43.140Z,99.90
2018-07-14T14:39:11.900Z,99.90
2018-07-14T14:41:40.524Z,99.90
2018-07-14T14:44:09.068Z,99.90
2018-07-14T14:46:38.465Z,99.90
2018-07-14T14:49:07.024Z,99.90
2018-07-14T14:51:35.614Z,99.90
2018-07-14T14:54:04.180Z,99.90
2018-07-14T14:56:32.778Z,99.90
2018-07-14T14:59:01.372Z,99.90
2018-07-14T15:01:29.919Z,99.90
2018-07-14T15:03:58.411Z,99.90
2018-07-14T15:06:27.231Z,99.90
2018-07-14T15:08:55.777Z,99.90
2018-07-14T15:11:24.528Z,99.90
2018-07-14T15:13:53.039Z,99.90
2018-07-14T15:16:21.636Z,99.90
2018-07-14T15:18:50.164Z,99.90
2018-07-14T15:21:18.747Z,99.90
2018-07-14T15:23:47.215Z,99.90
2018-07-14T15:26:15.731Z,99.90
2018-07-14T15:28:44.249Z,99.90
2018-07-14T15:31:12.780Z,99.90
2018-07-14T15:33:41.545Z,99.90
2018-07-14T15:36:10.140Z,99.90
2018-07-14T15:38:38.720Z,99.90
2018-07-14T15:41:07.478Z,99.90
2018-07-14T15:43:36.011Z,99.90
2018-07-14T15:46:04.504Z,99.90
2018-07-14T15:48:33.175Z,99.90
2018-07-14T15:51:01.808Z,99.90
2018-07-14T15:53:30.469Z,99.90
2018-07-14T15:55:59.175Z,99.90
2018-07-14T15:58:27.881Z,99.90
2018-07-14T16:00:56.486Z,99.90
2018-07-14T16:03:24.998Z,99.90
2018-07-14T16:05:53.544Z,99.90
2018-07-14T16:08:22.093Z,99.90
2018-07-14T16:10:50.836Z,99.90
2018-07-14T16:13:19.419Z,99.90
2018-07-14T16:15:47.908Z,99.90
2018-07-14T16:18:16.433Z,99.90
2018-07-14T16:20:44.925Z,99.90
2018-07-14T16:23:13.595Z,99.90
2018-07-14T16:25:42.157Z,99.90
2018-07-14T16:28:10.687Z,99.90
2018-07-14T16:30:39.315Z,99.90
2018-07-14T16:33:07.789Z,99.90
2018-07-14T16:35:36.451Z,99.90
2018-07-14T16:38:05.187Z,99.90
2018-07-14T16:40:33.665Z,99.90
2018-07-14T16:43:02.140Z,99.90
2018-07-14T16:45:30.746Z,99.90
2018-07-14T16:47:59.312Z,99.90
2018-07-14T16:50:27.993Z,99.90
2018-07-14T16:52:56.529Z,99.90
2018-07-14T16:55:25.495Z,99.90
2018-07-14T16:57:54.030Z,99.90
2018-07-14T17:00:22.727Z,99.90
2018-07-14T17:02:51.440Z,99.90
2018-07-14T17:05:20.136Z,99.90
2018-07-14T17:07:48.643Z,99.90
2018-07-14T17:10:17.233Z,99.90
2018-07-14T17:12:45.719Z,99.90
2018-07-14T17:15:14.350Z,99.90
2018-07-14T17:17:42.963Z,99.90
2018-07-14T17:20:11.458Z,99.90
2018-07-14T17:22:39.929Z,99.90
2018-07-14T17:25:08.450Z,99.90
2018-07-14T17:27:36.943Z,99.90
2018-07-14T17:30:05.671Z,99.90
2018-07-14T17:32:34.197Z,99.90
2018-07-14T17:35:02.702Z,99.90
2018-07-14T17:37:31.184Z,99.90
2018-07-14T17:39:59.637Z,99.90
2018-07-14T17:42:28.136Z,99.90
2018-07-14T17:44:56.803Z,99.90
2018-07-14T17:47:25.415Z,99.90
2018-07-14T17:49:53.887Z,99.90
2018-07-14T17:52:22.425Z,99.90
2018-07-14T17:54:50.931Z,99.90
2018-07-14T17:57:19.401Z,99.90
2018-07-14T17:59:47.977Z,99.90
2018-07-14T18:02:16.518Z,99.90
2018-07-14T18:04:45.008Z,99.90
2018-07-14T18:07:13.571Z,99.90
2018-07-14T18:09:42.091Z,99.90
2018-07-14T18:12:10.781Z,99.90
2018-07-14T18:14:39.289Z,99.90
2018-07-14T18:17:07.855Z,99.90
2018-07-14T18:19:36.542Z,99.90
2018-07-14T18:22:05.128Z,99.90
2018-07-14T18:24:33.879Z,99.90
2018-07-14T18:27:02.397Z,99.90
2018-07-14T18:29:30.902Z,99.90
2018-07-14T18:31:59.468Z,99.90
2018-07-14T18:34:28.006Z,99.90
2018-07-14T18:36:56.495Z,99.90
2018-07-14T18:39:25.162Z,99.90
2018-07-14T18:41:53.738Z,99.90
2018-07-14T18:44:22.241Z,99.90
2018-07-14T18:46:50.858Z,99.90
2018-07-14T18:49:19.397Z,99.90
2018-07-14T18:51:48.109Z,99.90
2018-07-14T18:54:16.654Z,99.90
2018-07-14T18:56:45.109Z,99.90
2018-07-14T18:59:13.763Z,99.90
2018-07-14T19:01:42.340Z,99.90
2018-07-14T19:04:10.779Z,99.90
2018-07-14T19:06:39.253Z,99.90
2018-07-14T19:09:07.999Z,99.90
2018-07-14T19:11:36.433Z,99.90
2018-07-14T19:14:05.080Z,99.90
2018-07-14T19:16:33.585Z,99.90
2018-07-14T19:21:30.433Z,99.90
2018-07-14T19:23:58.909Z,99.90
2018-07-14T19:26:27.515Z,99.90
2018-07-14T19:28:56.032Z,99.90
2018-07-14T19:31:24.570Z,99.90
2018-07-14T19:33:53.120Z,99.90
2018-07-14T19:36:22.052Z,99.90
2018-07-14T19:38:50.538Z,99.90
2018-07-14T19:41:19.112Z,99.90
2018-07-14T19:43:47.699Z,99.90
2018-07-14T19:46:16.228Z,99.90
2018-07-14T19:48:44.764Z,99.90
2018-07-14T19:51:13.438Z,99.90
2018-07-14T19:53:42.869Z,99.90
2018-07-14T19:56:11.392Z,99.90
2018-07-14T19:58:39.912Z,1.00
2018-07-14T20:01:08.465Z,1.00
2018-07-14T20:03:37.133Z,1.00
2018-07-14T20:06:05.892Z,85.10
2018-07-14T20:08:34.359Z,1.00
2018-07-14T20:11:02.939Z,99.90
2018-07-14T20:13:31.639Z,99.90
2018-07-14T20:16:00.202Z,18.60
2018-07-14T20:18:28.732Z,99.90
2018-07-14T20:20:57.680Z,66.80
2018-07-14T20:23:26.213Z,1.00
2018-07-14T20:25:54.705Z,1.00
2018-07-14T20:28:23.332Z,99.90
2018-07-14T20:30:51.813Z,1.00
2018-07-14T20:33:20.450Z,99.90
2018-07-14T20:35:49.130Z,99.90
2018-07-14T20:38:17.623Z,1.00
2018-07-14T20:40:46.176Z,1.00
2018-07-14T20:43:14.752Z,1.00
2018-07-14T20:45:43.257Z,99.90
2018-07-14T20:48:11.730Z,31.30
2018-07-14T20:50:40.489Z,99.90
2018-07-14T20:53:09.056Z,99.90
2018-07-14T20:55:37.703Z,99.90
2018-07-14T20:58:06.530Z,99.90
2018-07-14T21:00:34.983Z,1.00
2018-07-14T21:03:03.748Z,55.20
2018-07-14T21:05:32.366Z,1.00
2018-07-14T21:08:00.978Z,99.90
2018-07-14T21:10:29.472Z,55.40
2018-07-14T21:12:59.966Z,99.90
2018-07-14T21:15:28.611Z,96.10
2018-07-14T21:17:57.273Z,99.90
2018-07-14T21:20:25.791Z,1.00
2018-07-14T21:22:54.275Z,1.00
2018-07-14T21:25:22.956Z,99.90
2018-07-14T21:27:51.652Z,99.90
2018-07-14T21:30:20.130Z,99.90
2018-07-14T21:32:48.589Z,1.00
2018-07-14T21:35:17.104Z,1.00
2018-07-14T21:37:45.622Z,1.00
2018-07-14T21:40:14.246Z,80.40
2018-07-14T21:42:42.644Z,99.90
2018-07-14T21:45:11.224Z,99.90
2018-07-14T21:47:39.742Z,99.90
2018-07-14T21:50:08.231Z,99.90
2018-07-14T21:52:36.768Z,99.90
2018-07-14T21:55:05.544Z,99.90
2018-07-14T21:57:34.103Z,99.90
2018-07-14T22:00:02.642Z,99.90
2018-07-14T22:02:31.120Z,99.90
2018-07-14T22:04:59.657Z,1.00
2018-07-14T22:07:28.228Z,1.00
2018-07-14T22:09:56.650Z,1.00
2018-07-14T22:12:25.224Z,1.00
2018-07-14T22:14:53.888Z,1.00
2018-07-14T22:17:22.335Z,1.00
2018-07-14T22:19:50.834Z,1.00
2018-07-14T22:22:19.333Z,1.00
2018-07-14T22:24:47.814Z,1.00
2018-07-14T22:27:16.333Z,1.00
2018-07-14T22:29:44.800Z,1.00
2018-07-14T22:32:13.371Z,1.00
2018-07-14T22:34:41.963Z,1.00
2018-07-14T22:37:10.461Z,1.00
2018-07-14T22:39:39.063Z,1.00
2018-07-14T22:47:04.005Z,1.00
2018-07-14T22:49:32.670Z,1.00
2018-07-14T22:52:01.192Z,1.00
2018-07-14T22:54:29.684Z,1.00
2018-07-14T22:56:58.247Z,1.00
2018-07-14T22:59:26.752Z,1.00
2018-07-14T23:01:55.254Z,1.00
2018-07-14T23:04:23.831Z,1.00
2018-07-14T23:06:52.477Z,1.00
2018-07-14T23:09:20.941Z,1.00
2018-07-14T23:11:49.431Z,1.00
2018-07-14T23:16:46.102Z,1.00
2018-07-14T23:19:14.756Z,1.00
2018-07-14T23:21:43.235Z,1.00
2018-07-14T23:24:11.837Z,1.00
2018-07-14T23:26:40.323Z,1.00
2018-07-14T23:29:08.938Z,1.00
2018-07-14T23:31:37.410Z,1.00
2018-07-14T23:36:34.100Z,1.00
2018-07-14T23:39:02.638Z,1.00
2018-07-14T23:41:31.183Z,1.00
2018-07-14T23:43:59.658Z,1.00
2018-07-14T23:46:28.273Z,1.00
2018-07-14T23:48:56.758Z,1.00
2018-07-14T23:51:25.261Z,1.00
2018-07-14T23:53:53.763Z,1.00
2018-07-14T23:56:22.389Z,1.00
2018-07-14T23:58:51.136Z,1.00
